Antlers Park, Minnesota
Current Conditions -  °F | °C
As of 12:45 AM on Thursday 27 Nov 2014 (Local Time) from KLVN Reporting Station
Clear Clear  
Wind Chill: -8°   Ceiling: Unl
Heat Index:   Visibility: 10mi
Dew Point: -2°   Wind: 8mph
Humidity: 72%   Direction: 310°NW
Pressure: 30.4"   Gusts: NA
Location:  44.6349°N, 93.283°W
Report Text: KLVN 270645Z AUTO 31007KT 10SM CLR M15/M19 A3040 RMK AO2
Loading
Personal Weather Stations






























Interactive Weather Map New forecast layout! Learn more

10-Day Weather Forecast

Advertisements
Track Severe Weather on mobile